Time;durP1;ratioP1;P1;durP2;ratioP2;P2;SDS_P1;SDS_P2;PMS_P1;PMS_P2;Temp;Humidity;BMP_temperature;BMP_pressure;BME280_temperature;BME280_humidity;BME280_pressure;Samples;Min_cycle;Max_cycle;Signal;HPM_P1;HPM_P2
2023/08/09 00:01:35;;;;;;;1.25;1.00;;;;;;;23.91;53.42;101229.38;5035285;28;20099;-58
2023/08/09 00:04:02;;;;;;;2.00;1.20;;;;;;;23.77;53.26;101204.63;5035382;28;20036;-58
2023/08/09 00:06:28;;;;;;;3.88;1.45;;;;;;;23.66;53.87;101205.81;5035164;28;20483;-58
2023/08/09 00:08:55;;;;;;;1.13;0.90;;;;;;;23.61;53.85;101203.09;5035160;28;20025;-56
2023/08/09 00:11:21;;;;;;;2.08;0.90;;;;;;;23.64;54.58;101197.88;5034574;28;20442;-58
2023/08/09 00:13:47;;;;;;;2.05;1.13;;;;;;;23.80;54.13;101201.31;5035185;28;20025;-58
2023/08/09 00:16:14;;;;;;;1.35;0.95;;;;;;;24.02;53.66;101191.84;5035157;28;20024;-58
2023/08/09 00:18:40;;;;;;;0.80;0.73;;;;;;;23.69;54.24;101197.84;5035089;28;20025;-58
2023/08/09 00:21:06;;;;;;;1.30;0.80;;;;;;;23.57;53.90;101208.28;5034530;28;20122;-58
2023/08/09 00:23:33;;;;;;;1.05;0.98;;;;;;;23.21;55.54;101204.97;5034678;28;20448;-58
2023/08/09 00:26:00;;;;;;;3.10;0.88;;;;;;;23.13;56.02;101203.63;5034738;28;20468;-58
2023/08/09 00:28:26;;;;;;;1.23;0.90;;;;;;;23.12;56.73;101199.28;5034973;28;20045;-58
2023/08/09 00:30:54;;;;;;;2.88;0.90;;;;;;;22.95;56.52;101189.81;5034342;28;20025;-58
2023/08/09 00:33:20;;;;;;;1.25;1.13;;;;;;;22.66;56.87;101187.72;5034666;28;20036;-58
2023/08/09 00:35:47;;;;;;;1.75;1.02;;;;;;;22.62;57.35;101189.38;5034968;28;20391;-58
2023/08/09 00:38:13;;;;;;;2.33;1.30;;;;;;;22.31;58.31;101192.16;5033864;28;20084;-58
2023/08/09 00:40:39;;;;;;;1.92;1.00;;;;;;;22.16;58.84;101184.03;5034337;28;20082;-59
2023/08/09 00:43:06;;;;;;;4.38;1.55;;;;;;;22.05;59.61;101191.38;5034338;28;20028;-59
2023/08/09 00:45:33;;;;;;;1.83;1.17;;;;;;;21.87;59.97;101189.19;5038454;28;20025;-59
2023/08/09 00:48:00;;;;;;;1.65;1.00;;;;;;;21.90;60.77;101182.38;5054250;28;20120;-59
2023/08/09 00:50:27;;;;;;;2.08;1.02;;;;;;;21.86;59.77;101182.09;5053162;28;20063;-59
2023/08/09 00:52:54;;;;;;;6.95;1.20;;;;;;;21.68;60.27;101186.19;5051778;28;20053;-58
2023/08/09 00:55:20;;;;;;;1.30;1.10;;;;;;;21.56;60.31;101182.94;5053149;28;20024;-58
2023/08/09 00:57:49;;;;;;;2.03;1.10;;;;;;;21.22;61.71;101175.22;5053905;28;20029;-58
2023/08/09 01:00:15;;;;;;;1.27;1.05;;;;;;;21.16;62.48;101181.75;5054265;28;20463;-58
2023/08/09 01:02:42;;;;;;;2.80;1.35;;;;;;;20.85;63.45;101180.81;5054331;28;20033;-58
2023/08/09 01:05:09;;;;;;;4.18;1.70;;;;;;;20.69;64.11;101181.81;5053915;28;20088;-58
2023/08/09 01:07:49;;;;;;;2.00;1.50;;;;;;;20.72;64.72;101186.75;5053896;28;20025;-58
2023/08/09 01:10:19;;;;;;;3.00;1.60;;;;;;;20.45;64.92;101178.69;5049287;28;20051;-58
2023/08/09 01:12:52;;;;;;;2.97;1.50;;;;;;;20.44;65.20;101182.50;5053848;28;20506;-58
2023/08/09 01:15:20;;;;;;;2.00;1.60;;;;;;;20.35;65.97;101181.34;5054005;28;20108;-58
2023/08/09 01:17:49;;;;;;;1.67;1.48;;;;;;;20.21;66.48;101176.38;5051951;28;20111;-58
2023/08/09 01:20:18;;;;;;;2.03;1.63;;;;;;;20.17;66.46;101175.25;5033552;28;20075;-59
2023/08/09 01:22:57;;;;;;;2.22;1.63;;;;;;;20.01;66.88;101162.66;5033956;28;20030;-58
2023/08/09 01:25:24;;;;;;;2.35;1.67;;;;;;;19.93;68.11;101171.25;5042176;28;20026;-59
2023/08/09 01:27:51;;;;;;;4.28;2.03;;;;;;;19.75;68.22;101156.19;5034404;28;20104;-59
2023/08/09 01:30:18;;;;;;;2.97;1.98;;;;;;;19.65;68.62;101158.81;5053335;28;20037;-59
2023/08/09 01:32:45;;;;;;;8.52;2.83;;;;;;;19.62;69.10;101168.31;5053723;28;20029;-59
2023/08/09 01:35:12;;;;;;;3.22;1.90;;;;;;;19.68;69.11;101159.13;5053505;28;20025;-59
2023/08/09 01:37:52;;;;;;;5.43;2.35;;;;;;;19.51;69.06;101152.97;5044359;28;20390;-59
2023/08/09 01:40:20;;;;;;;3.97;1.70;;;;;;;19.50;69.04;101164.91;5049059;28;20033;-59
2023/08/09 01:42:48;;;;;;;6.35;1.98;;;;;;;19.43;69.27;101161.56;5051993;28;20390;-58
2023/08/09 01:45:19;;;;;;;3.25;2.05;;;;;;;19.25;70.21;101162.75;5053255;28;20025;-59
2023/08/09 01:47:45;;;;;;;4.90;2.13;;;;;;;19.11;70.75;101156.13;5053323;28;20029;-59
2023/08/09 01:50:20;;;;;;;4.57;2.05;;;;;;;19.14;70.76;101156.41;5051834;28;20029;-59
2023/08/09 01:52:46;;;;;;;;;;;;;;;19.11;70.51;101158.81;5052181;28;20052;-58
2023/08/09 01:55:18;;;;;;;2.53;1.88;;;;;;;18.78;71.45;101157.91;5046091;28;20003;-57
2023/08/09 01:57:46;;;;;;;2.67;1.88;;;;;;;18.84;71.83;101166.94;5045735;28;20040;-58
2023/08/09 02:00:19;;;;;;;4.05;2.00;;;;;;;18.71;72.24;101168.09;5051515;28;20051;-59
2023/08/09 02:02:52;;;;;;;4.32;1.88;;;;;;;18.66;72.54;101160.72;5048077;28;20021;-59
2023/08/09 02:05:19;;;;;;;3.67;1.85;;;;;;;18.48;73.37;101158.28;5049898;28;20446;-59
2023/08/09 02:07:46;;;;;;;4.18;2.00;;;;;;;18.30;74.55;101147.75;5035833;28;20032;-58
2023/08/09 02:10:13;;;;;;;2.55;1.80;;;;;;;18.31;74.52;101149.38;5032686;28;20026;-58
2023/08/09 02:12:40;;;;;;;5.30;1.85;;;;;;;18.23;75.40;101149.81;5032206;28;20048;-59
2023/08/09 02:15:07;;;;;;;2.97;1.98;;;;;;;18.25;75.07;101153.91;5048999;28;20037;-58
2023/08/09 02:17:35;;;;;;;4.93;1.98;;;;;;;17.87;77.04;101152.78;5052775;28;20024;-58
2023/08/09 02:20:04;;;;;;;4.38;3.05;;;;;;;17.96;76.60;101150.50;5052514;28;20095;-58
2023/08/09 02:22:39;;;;;;;5.25;1.88;;;;;;;17.91;76.86;101148.53;5052239;28;20033;-59
2023/08/09 02:25:06;;;;;;;;;;;;;;;18.02;76.50;101143.28;5037491;28;20035;-58
2023/08/09 02:27:34;;;;;;;2.90;1.90;;;;;;;17.81;77.15;101151.06;5051047;28;19916;-59
2023/08/09 02:30:03;;;;;;;2.38;1.90;;;;;;;17.75;77.25;101154.78;5039764;28;20025;-59
2023/08/09 02:32:34;;;;;;;3.45;1.80;;;;;;;17.78;77.13;101158.88;5032472;28;20102;-59
2023/08/09 02:35:00;;;;;;;2.78;1.75;;;;;;;17.82;77.04;101160.03;5032536;28;20064;-59
2023/08/09 02:37:27;;;;;;;3.15;1.83;;;;;;;17.69;77.35;101153.84;5032286;28;20049;-59
2023/08/09 02:39:54;;;;;;;2.58;1.90;;;;;;;17.63;77.97;101160.22;5037037;28;20037;-59
2023/08/09 02:42:20;;;;;;;2.47;2.10;;;;;;;17.71;77.86;101159.00;5052402;28;20517;-59
2023/08/09 02:44:47;;;;;;;3.40;2.05;;;;;;;17.64;78.06;101159.16;5052195;28;20562;-58
2023/08/09 02:47:13;;;;;;;4.03;3.60;;;;;;;17.49;78.91;101167.03;5052314;28;20095;-58
2023/08/09 02:49:40;;;;;;;4.75;2.25;;;;;;;17.50;79.15;101168.69;5038285;28;20475;-59
2023/08/09 02:52:07;;;;;;;3.17;1.95;;;;;;;17.62;78.61;101166.72;5040946;28;20040;-59
2023/08/09 02:54:33;;;;;;;4.50;2.78;;;;;;;17.51;79.39;101170.31;5052792;28;20025;-59
2023/08/09 02:57:00;;;;;;;8.07;2.33;;;;;;;17.54;79.66;101185.22;5052037;28;20028;-59
2023/08/09 02:59:26;;;;;;;4.03;2.38;;;;;;;17.56;79.22;101183.13;5045584;28;20049;-58
2023/08/09 03:01:53;;;;;;;6.18;2.30;;;;;;;17.54;79.28;101174.41;5031878;28;20376;-59
2023/08/09 03:04:19;;;;;;;6.28;2.45;;;;;;;17.50;79.90;101179.50;5046509;28;20033;-59
2023/08/09 03:06:45;;;;;;;3.80;2.65;;;;;;;17.28;81.17;101179.38;5049814;28;20592;-58
2023/08/09 03:09:11;;;;;;;6.18;3.08;;;;;;;17.44;80.43;101175.06;5048909;28;20123;-59
2023/08/09 03:11:38;;;;;;;13.20;3.25;;;;;;;17.32;80.75;101182.41;5045926;28;20048;-59
2023/08/09 03:14:04;;;;;;;5.22;2.78;;;;;;;17.34;81.06;101173.00;5040944;28;20036;-59
2023/08/09 03:16:30;;;;;;;4.20;2.33;;;;;;;17.31;81.08;101175.34;5050513;28;20077;-58
2023/08/09 03:18:57;;;;;;;3.92;2.40;;;;;;;17.24;81.69;101180.91;5045078;28;20036;-59
2023/08/09 03:21:23;;;;;;;4.43;2.25;;;;;;;17.31;81.89;101161.81;5041752;28;20029;-59
2023/08/09 03:23:51;;;;;;;9.15;2.88;;;;;;;17.09;83.38;101177.91;5051542;28;20045;-59
2023/08/09 03:26:17;;;;;;;4.13;2.53;;;;;;;17.17;83.23;101174.84;5050459;28;20021;-59
2023/08/09 03:28:44;;;;;;;5.18;2.58;;;;;;;17.11;83.04;101176.63;5033663;28;20033;-59
2023/08/09 03:31:10;;;;;;;5.25;2.50;;;;;;;17.14;83.01;101172.59;5050396;28;20054;-59
2023/08/09 03:33:36;;;;;;;6.18;2.72;;;;;;;17.20;82.62;101174.34;5051710;28;20064;-59
2023/08/09 03:36:03;;;;;;;1.98;1.38;;;;;;;17.19;82.34;101175.41;5051745;28;20023;-59
2023/08/09 03:38:29;;;;;;;2.13;1.70;;;;;;;17.18;82.30;101175.66;5051861;28;20029;-59
2023/08/09 03:40:55;;;;;;;2.97;1.80;;;;;;;17.10;82.29;101180.41;5048957;28;20060;-59
2023/08/09 03:43:22;;;;;;;2.97;1.73;;;;;;;17.10;82.49;101176.84;5087466;23;20099;-59
2023/08/09 03:45:48;;;;;;;1.92;1.35;;;;;;;17.12;82.18;101175.56;5091209;28;20114;-58
2023/08/09 03:48:14;;;;;;;1.90;1.23;;;;;;;16.99;82.24;101183.97;5090958;28;20500;-59
2023/08/09 03:50:40;;;;;;;2.95;1.30;;;;;;;17.05;82.06;101182.19;5091436;28;20108;-59
2023/08/09 03:53:07;;;;;;;1.75;1.10;;;;;;;16.99;82.30;101200.19;5089656;28;20034;-59
2023/08/09 03:55:33;;;;;;;2.85;1.30;;;;;;;17.05;81.96;101193.81;5091887;28;20031;-59
2023/08/09 03:57:59;;;;;;;1.70;1.05;;;;;;;17.02;82.29;101193.47;5089622;28;20028;-59
2023/08/09 04:00:26;;;;;;;2.45;1.20;;;;;;;17.02;82.38;101194.28;5091475;28;20115;-59
2023/08/09 04:02:52;;;;;;;2.47;1.10;;;;;;;17.00;82.25;101196.41;5091799;28;20450;-58
2023/08/09 04:05:19;;;;;;;2.72;1.05;;;;;;;16.99;82.19;101208.31;5091445;28;20024;-58
2023/08/09 04:07:46;;;;;;;1.30;1.02;;;;;;;17.00;82.46;101203.72;5091777;28;20032;-59
2023/08/09 04:10:13;;;;;;;2.35;0.93;;;;;;;16.83;82.79;101201.75;5091655;28;20032;-58
2023/08/09 04:12:40;;;;;;;1.63;0.93;;;;;;;16.77;83.49;101207.28;5090741;28;20028;-58
2023/08/09 04:15:06;;;;;;;2.72;1.00;;;;;;;16.88;82.66;101209.16;5092482;28;20025;-59
2023/08/09 04:17:33;;;;;;;0.80;0.80;;;;;;;16.84;82.65;101216.91;5094453;28;20032;-59
2023/08/09 04:20:00;;;;;;;2.63;0.98;;;;;;;16.83;82.96;101222.56;5094050;28;20115;-58
2023/08/09 04:22:26;;;;;;;2.50;0.80;;;;;;;16.89;82.63;101225.13;5094359;28;20093;-59
2023/08/09 04:24:52;;;;;;;3.03;1.23;;;;;;;16.61;82.91;101223.16;5093100;28;20035;-59
2023/08/09 04:27:19;;;;;;;1.40;1.20;;;;;;;16.48;83.85;101215.25;5094217;28;20530;-59
2023/08/09 04:29:45;;;;;;;1.15;0.70;;;;;;;16.44;82.83;101219.53;5094870;28;20031;-59
2023/08/09 04:32:12;;;;;;;2.08;0.98;;;;;;;16.41;83.34;101219.97;5095064;28;20032;-58
2023/08/09 04:34:39;;;;;;;1.70;1.23;;;;;;;16.33;83.48;101221.16;5095146;28;20024;-59
2023/08/09 04:37:05;;;;;;;2.63;1.50;;;;;;;16.20;84.54;101215.16;5094966;28;20024;-59
2023/08/09 04:39:33;;;;;;;1.30;1.20;;;;;;;16.29;84.46;101221.84;5094664;28;20032;-58
2023/08/09 04:41:59;;;;;;;2.65;1.45;;;;;;;16.40;84.13;101237.25;5094759;28;20141;-58
2023/08/09 04:44:26;;;;;;;1.83;1.50;;;;;;;16.38;84.63;101236.66;5094924;28;20113;-58
2023/08/09 04:46:52;;;;;;;3.10;1.40;;;;;;;16.50;84.39;101237.50;5094900;28;20034;-59
2023/08/09 04:49:19;;;;;;;2.38;1.20;;;;;;;16.65;83.65;101237.00;5094577;28;20028;-59
2023/08/09 04:51:46;;;;;;;2.50;1.65;;;;;;;16.63;83.11;101245.34;5094705;28;20032;-59
2023/08/09 04:54:13;;;;;;;1.80;1.35;;;;;;;16.64;82.21;101241.56;5094864;28;20032;-59
2023/08/09 04:56:40;;;;;;;1.15;1.00;;;;;;;16.53;82.65;101242.41;5094642;28;20043;-58
2023/08/09 04:59:06;;;;;;;0.93;0.70;;;;;;;16.64;82.04;101235.34;5094442;28;20489;-58
2023/08/09 05:01:33;;;;;;;3.67;1.15;;;;;;;16.56;82.63;101241.94;5094433;28;20374;-58
2023/08/09 05:03:59;;;;;;;1.30;0.75;;;;;;;16.60;82.22;101237.72;5094419;28;20030;-59
2023/08/09 05:06:27;;;;;;;2.25;0.90;;;;;;;16.60;82.07;101240.44;5094343;28;20056;-58
2023/08/09 05:08:53;;;;;;;0.80;0.75;;;;;;;16.56;82.41;101231.13;5094101;28;20035;-59
2023/08/09 05:11:20;;;;;;;1.60;0.90;;;;;;;16.55;82.73;101243.00;5094114;28;20024;-59
2023/08/09 05:13:46;;;;;;;1.42;0.90;;;;;;;16.55;82.65;101239.50;5094160;28;20055;-58
2023/08/09 05:16:12;;;;;;;1.17;1.00;;;;;;;16.62;82.23;101243.69;5094118;28;20008;-58
2023/08/09 05:18:38;;;;;;;1.42;0.80;;;;;;;16.75;81.88;101244.53;5094132;28;20372;-58
2023/08/09 05:21:05;;;;;;;1.75;0.90;;;;;;;16.84;81.05;101245.81;5094323;28;20032;-58
2023/08/09 05:23:32;;;;;;;1.30;0.80;;;;;;;16.76;81.66;101244.28;5078227;28;20111;-59
2023/08/09 05:25:59;;;;;;;1.67;1.00;;;;;;;16.81;81.60;101246.28;5073625;28;20028;-58
2023/08/09 05:28:25;;;;;;;2.55;1.00;;;;;;;16.85;80.96;101245.59;5083022;28;20028;-58
2023/08/09 05:30:52;;;;;;;1.05;0.85;;;;;;;16.70;81.76;101244.41;5093781;28;20098;-58
2023/08/09 05:33:18;;;;;;;1.20;0.82;;;;;;;16.77;81.90;101245.13;5094031;28;20113;-58
2023/08/09 05:35:44;;;;;;;0.90;0.60;;;;;;;16.55;82.90;101242.19;5072243;28;20084;-59
2023/08/09 05:38:13;;;;;;;1.40;0.60;;;;;;;16.58;83.21;101242.53;5081079;28;20029;-59
2023/08/09 05:40:40;;;;;;;1.20;0.65;;;;;;;16.51;83.59;101238.31;5082971;28;20046;-58
2023/08/09 05:43:06;;;;;;;0.85;0.70;;;;;;;16.43;84.14;101239.47;5087880;28;20043;-58
2023/08/09 05:45:32;;;;;;;0.73;0.60;;;;;;;16.42;84.55;101240.53;5091599;28;20506;-59
2023/08/09 05:47:59;;;;;;;0.70;0.60;;;;;;;16.44;84.56;101243.00;5092993;28;20461;-58
2023/08/09 05:50:25;;;;;;;2.22;0.75;;;;;;;16.36;84.92;101236.88;5093273;28;20091;-58
2023/08/09 05:52:51;;;;;;;0.90;0.60;;;;;;;16.35;85.76;101237.13;5093666;28;20031;-58
2023/08/09 05:55:18;;;;;;;0.80;0.63;;;;;;;16.29;86.03;101232.66;5080029;28;20382;-58
2023/08/09 05:57:44;;;;;;;1.80;0.70;;;;;;;16.33;86.54;101231.97;5073103;28;20028;-59
2023/08/09 06:00:15;;;;;;;1.00;0.77;;;;;;;16.37;85.94;101235.00;5072938;28;20040;-58
2023/08/09 06:02:43;;;;;;;2.33;1.00;;;;;;;16.37;86.35;101233.13;5072920;28;20024;-58
2023/08/09 06:05:43;;;;;;;2.15;1.20;;;;;;;16.42;86.89;101227.00;5088995;28;20028;-58
2023/08/09 06:08:03;;;;;;;2.22;1.08;;;;;;;16.43;86.79;101225.94;5089263;28;20052;-58
2023/08/09 06:10:30;;;;;;;1.95;0.98;;;;;;;16.50;86.39;101225.84;5093132;28;20028;-58
2023/08/09 06:12:56;;;;;;;1.98;0.75;;;;;;;16.44;87.82;101227.63;5093063;28;20547;-59
2023/08/09 06:15:22;;;;;;;2.33;1.00;;;;;;;16.49;86.95;101226.88;5093202;28;20117;-59
2023/08/09 06:17:49;;;;;;;1.42;0.70;;;;;;;16.44;87.28;101224.09;5076506;28;20021;-58
2023/08/09 06:20:16;;;;;;;2.03;0.80;;;;;;;16.40;88.00;101222.91;5072535;28;20024;-59
2023/08/09 06:22:43;;;;;;;3.08;1.10;;;;;;;16.45;88.28;101225.75;5074871;28;20032;-58
2023/08/09 06:25:10;;;;;;;4.40;1.15;;;;;;;16.51;87.85;101220.22;5089526;28;20602;-59
2023/08/09 06:27:36;;;;;;;1.88;0.90;;;;;;;16.50;88.11;101232.09;5088200;28;20024;-58
2023/08/09 06:30:04;;;;;;;2.28;1.00;;;;;;;16.53;87.89;101226.19;5092691;28;20043;-58
2023/08/09 06:32:30;;;;;;;1.38;1.10;;;;;;;16.31;88.56;101219.72;5091436;28;20028;-58
2023/08/09 06:34:57;;;;;;;1.60;1.00;;;;;;;16.36;88.31;101223.38;5092879;28;20078;-58
2023/08/09 06:37:23;;;;;;;2.40;0.90;;;;;;;16.26;88.39;101227.72;5091991;28;20054;-58
2023/08/09 06:39:49;;;;;;;2.92;1.10;;;;;;;16.27;88.91;101226.69;5092567;28;20114;-59
2023/08/09 06:42:16;;;;;;;3.20;1.00;;;;;;;16.23;88.82;101230.91;5092585;28;20072;-59
2023/08/09 06:44:43;;;;;;;1.17;0.80;;;;;;;16.19;89.32;101227.00;5091381;28;20069;-59
2023/08/09 06:47:10;;;;;;;3.33;1.05;;;;;;;16.04;89.38;101230.97;5092501;28;20024;-58
2023/08/09 06:49:37;;;;;;;0.80;0.80;;;;;;;16.12;88.98;101227.13;5091216;28;20031;-58
2023/08/09 06:52:03;;;;;;;1.85;0.73;;;;;;;16.22;88.26;101230.09;5091266;28;20036;-58
2023/08/09 06:54:29;;;;;;;1.45;1.10;;;;;;;16.13;88.34;101227.94;5092537;28;20024;-59
2023/08/09 06:56:56;;;;;;;2.83;0.98;;;;;;;16.14;88.70;101218.78;5092118;28;20024;-58
2023/08/09 06:59:22;;;;;;;3.47;1.00;;;;;;;16.17;88.83;101223.75;5090572;28;20036;-58
2023/08/09 07:01:48;;;;;;;1.08;0.80;;;;;;;16.17;88.55;101219.16;5092290;28;20035;-58
2023/08/09 07:04:16;;;;;;;2.38;0.90;;;;;;;16.16;88.49;101220.22;5092495;28;20020;-58
2023/08/09 07:06:42;;;;;;;1.25;0.70;;;;;;;16.12;88.24;101219.03;5092114;28;20107;-58
2023/08/09 07:09:11;;;;;;;0.77;0.60;;;;;;;16.10;88.40;101218.41;5073895;28;20035;-58
2023/08/09 07:11:37;;;;;;;1.40;0.60;;;;;;;16.12;88.27;101212.81;5091990;28;20431;-58
2023/08/09 07:14:04;;;;;;;1.55;0.68;;;;;;;16.12;88.67;101216.34;5092547;28;20063;-58
2023/08/09 07:16:30;;;;;;;0.80;0.70;;;;;;;16.00;88.26;101219.03;5068465;28;20017;-59
2023/08/09 07:18:56;;;;;;;1.05;0.70;;;;;;;16.04;87.65;101224.75;5086276;28;20027;-59
2023/08/09 07:21:22;;;;;;;0.63;0.55;;;;;;;16.04;88.00;101222.88;5092116;28;20099;-59
2023/08/09 07:23:49;;;;;;;1.75;0.82;;;;;;;16.06;87.37;101225.38;5092167;28;20469;-58
2023/08/09 07:26:15;;;;;;;1.00;0.75;;;;;;;16.06;87.70;101220.78;5092362;28;20021;-58
2023/08/09 07:28:41;;;;;;;3.13;0.80;;;;;;;16.05;88.18;101215.63;5091618;28;20043;-58
2023/08/09 07:31:21;;;;;;;0.70;0.50;;;;;;;15.95;88.32;101218.91;5091789;28;20040;-58
2023/08/09 07:33:48;;;;;;;0.82;0.55;;;;;;;15.99;87.80;101220.09;5092095;28;20032;-58
2023/08/09 07:36:14;;;;;;;0.40;0.40;;;;;;;15.94;87.62;101214.56;5077578;28;20020;-58
2023/08/09 07:38:41;;;;;;;1.85;0.80;;;;;;;16.04;87.41;101214.78;5088048;28;20028;-58
2023/08/09 07:41:07;;;;;;;0.68;0.50;;;;;;;16.04;87.21;101220.19;5088516;28;20032;-59
2023/08/09 07:43:33;;;;;;;0.77;0.50;;;;;;;16.03;87.17;101213.13;5071637;28;20063;-58
2023/08/09 07:46:03;;;;;;;0.60;0.57;;;;;;;16.05;86.97;101212.94;5077730;28;20493;-58
2023/08/09 07:48:30;;;;;;;0.40;0.40;;;;;;;16.00;87.03;101216.31;5093957;28;20043;-58
2023/08/09 07:50:56;;;;;;;1.70;0.50;;;;;;;16.01;86.60;101212.56;5095879;28;20030;-58
2023/08/09 07:53:23;;;;;;;0.60;0.50;;;;;;;15.95;87.16;101208.09;5091712;28;20501;-58
2023/08/09 07:55:49;;;;;;;0.50;0.40;;;;;;;16.05;86.34;101208.34;5111135;28;20080;-59
2023/08/09 07:58:15;;;;;;;1.13;0.50;;;;;;;16.10;86.01;101207.63;5115996;28;20023;-58
2023/08/09 08:00:42;;;;;;;0.57;0.47;;;;;;;15.98;86.30;101204.09;5101477;28;20060;-58
2023/08/09 08:03:09;;;;;;;0.70;0.40;;;;;;;15.91;85.92;101196.09;5095393;28;20519;-59
2023/08/09 08:05:36;;;;;;;1.00;0.70;;;;;;;15.99;85.85;101200.34;5094795;28;20098;-58
2023/08/09 08:08:03;;;;;;;1.15;0.47;;;;;;;15.92;86.42;101197.75;5094350;28;20031;-58
2023/08/09 08:10:29;;;;;;;1.30;0.47;;;;;;;15.95;86.32;101194.59;5093925;28;20612;-59
2023/08/09 08:12:56;;;;;;;0.57;0.40;;;;;;;16.03;86.20;101188.84;5094327;28;20115;-58
2023/08/09 08:15:22;;;;;;;0.95;0.55;;;;;;;16.06;85.51;101185.69;5095395;28;20032;-58
2023/08/09 08:17:51;;;;;;;1.00;0.50;;;;;;;16.03;85.35;101183.44;5079609;28;20032;-58
2023/08/09 08:20:19;;;;;;;0.45;0.32;;;;;;;16.01;85.28;101182.03;5095142;28;20202;-58
2023/08/09 08:22:49;;;;;;;0.60;0.32;;;;;;;15.96;85.78;101181.91;5095297;28;20047;-58
2023/08/09 08:25:17;;;;;;;1.02;0.40;;;;;;;15.86;85.78;101182.47;5095252;28;20019;-58
2023/08/09 08:27:45;;;;;;;0.40;0.40;;;;;;;15.93;85.51;101179.66;5095040;28;20016;-59
2023/08/09 08:30:38;;;;;;;0.50;0.38;;;;;;;15.83;85.93;101175.69;5094894;28;20378;-58
2023/08/09 08:33:04;;;;;;;1.67;0.40;;;;;;;15.75;86.22;101178.72;5052536;28;20128;-59
2023/08/09 08:35:36;;;;;;;0.77;0.50;;;;;;;15.65;86.79;101180.31;5052504;28;20041;-58
2023/08/09 08:38:03;;;;;;;0.60;0.60;;;;;;;15.72;86.35;101189.16;5052099;28;20036;-58
2023/08/09 08:40:31;;;;;;;0.95;0.70;;;;;;;15.67;86.91;101191.72;5052169;28;20029;-58
2023/08/09 08:42:59;;;;;;;1.00;0.90;;;;;;;15.64;86.77;101184.91;5052305;28;20063;-58
2023/08/09 08:45:25;;;;;;;1.23;1.08;;;;;;;15.58;86.92;101191.19;5052377;28;20037;-58
2023/08/09 08:47:52;;;;;;;1.95;1.55;;;;;;;15.46;87.70;101193.84;5052317;28;20029;-58
2023/08/09 08:50:19;;;;;;;2.45;0.90;;;;;;;15.50;87.25;101191.53;5051878;28;20060;-58
2023/08/09 08:52:47;;;;;;;0.98;0.80;;;;;;;15.53;86.84;101183.78;5052334;28;20029;-58
2023/08/09 08:55:15;;;;;;;0.50;0.50;;;;;;;15.49;87.16;101179.94;5051976;28;20519;-58
2023/08/09 08:57:42;;;;;;;0.65;0.60;;;;;;;15.41;87.63;101177.53;5052059;28;20136;-58
2023/08/09 09:00:15;;;;;;;0.60;0.60;;;;;;;15.37;87.62;101183.63;5051143;28;20486;-59
2023/08/09 09:02:43;;;;;;;0.60;0.60;;;;;;;15.41;87.65;101182.13;5052103;28;20033;-58
2023/08/09 09:05:11;;;;;;;0.95;0.85;;;;;;;15.41;87.93;101172.16;5051972;28;20040;-59
2023/08/09 09:07:39;;;;;;;0.90;0.60;;;;;;;15.40;87.49;101173.19;5051931;28;20109;-58
2023/08/09 09:10:09;;;;;;;0.88;0.70;;;;;;;15.49;87.28;101184.47;5065604;28;20036;-59
2023/08/09 09:12:39;;;;;;;0.77;0.60;;;;;;;15.45;87.57;101180.59;5094113;28;20028;-58
2023/08/09 09:15:08;;;;;;;0.98;0.60;;;;;;;15.45;86.78;101181.44;5092562;28;20024;-58
2023/08/09 09:17:43;;;;;;;1.40;0.47;;;;;;;15.46;86.84;101179.56;5087337;28;20036;-59
2023/08/09 09:20:23;;;;;;;4.53;0.63;;;;;;;15.46;86.87;101182.25;5092360;28;20055;-58
2023/08/09 09:22:50;;;;;;;1.15;0.60;;;;;;;15.25;87.63;101173.59;5093059;28;20507;-58
2023/08/09 09:25:21;;;;;;;0.57;0.45;;;;;;;15.26;87.69;101175.25;5093035;28;20389;-58
2023/08/09 09:27:52;;;;;;;0.35;0.35;;;;;;;15.15;87.76;101177.91;5092890;28;20035;-58
2023/08/09 09:30:21;;;;;;;0.60;0.43;;;;;;;15.11;88.00;101176.72;5093468;28;20112;-58
2023/08/09 09:33:00;;;;;;;0.80;0.47;;;;;;;15.26;87.65;101174.44;5093813;28;20405;-58
2023/08/09 09:35:29;;;;;;;0.73;0.50;;;;;;;15.16;88.40;101175.00;5093740;28;20504;-58
2023/08/09 09:37:58;;;;;;;1.00;0.70;;;;;;;15.18;88.07;101166.66;5093999;28;20107;-58
2023/08/09 09:40:28;;;;;;;0.88;0.50;;;;;;;15.24;87.36;101161.19;5093823;28;20024;-58
2023/08/09 09:42:56;;;;;;;1.10;0.70;;;;;;;15.21;87.63;101171.59;5093590;28;20528;-59
2023/08/09 09:45:24;;;;;;;1.77;0.80;;;;;;;15.25;87.28;101164.69;5093081;28;20099;-58
2023/08/09 09:47:55;;;;;;;0.55;0.50;;;;;;;15.32;86.82;101168.13;5093847;28;20024;-59
2023/08/09 09:50:22;;;;;;;0.90;0.80;;;;;;;15.22;87.30;101162.47;5093646;28;20032;-58
2023/08/09 09:52:50;;;;;;;0.63;0.50;;;;;;;15.16;87.70;101164.22;5093573;28;20381;-58
2023/08/09 09:55:19;;;;;;;2.05;0.50;;;;;;;15.12;88.06;101162.19;5093381;28;20056;-58
2023/08/09 09:57:49;;;;;;;0.82;0.60;;;;;;;15.14;87.50;101163.59;5093374;28;20020;-58
2023/08/09 10:00:16;;;;;;;2.15;0.70;;;;;;;15.10;88.10;101164.28;5093087;28;20028;-58
2023/08/09 10:02:49;;;;;;;1.33;0.80;;;;;;;15.16;87.93;101155.31;5093461;28;20028;-58
2023/08/09 10:05:29;;;;;;;0.65;0.57;;;;;;;15.13;87.56;101153.88;5093379;28;20437;-58
2023/08/09 10:07:57;;;;;;;2.30;0.98;;;;;;;14.98;88.01;101164.22;5093165;28;20035;-59
2023/08/09 10:10:24;;;;;;;1.10;0.80;;;;;;;14.97;87.99;101159.88;5093102;28;20036;-58
2023/08/09 10:12:53;;;;;;;0.65;0.40;;;;;;;15.06;87.68;101153.16;5092352;28;20032;-58
2023/08/09 10:15:27;;;;;;;0.73;0.70;;;;;;;15.00;87.67;101154.88;5090923;28;20024;-58
2023/08/09 10:18:02;;;;;;;0.60;0.60;;;;;;;14.94;88.35;101147.69;5072599;28;20033;-58
2023/08/09 10:20:29;;;;;;;0.90;0.50;;;;;;;14.95;88.51;101160.13;5091154;28;20442;-58
2023/08/09 10:22:58;;;;;;;1.13;0.43;;;;;;;14.91;88.98;101150.84;5108742;28;20067;-58
2023/08/09 10:25:44;;;;;;;0.60;0.40;;;;;;;14.95;88.81;101149.34;5113536;28;20465;-58
2023/08/09 10:28:10;;;;;;;1.65;0.57;;;;;;;15.04;88.50;101147.97;5097907;28;20745;-58
2023/08/09 10:30:48;;;;;;;1.50;0.77;;;;;;;15.07;87.84;101149.41;5091532;28;20024;-58
2023/08/09 10:33:18;;;;;;;1.45;0.55;;;;;;;15.09;87.61;101141.88;5090230;28;20024;-58
2023/08/09 10:35:54;;;;;;;0.82;0.60;;;;;;;14.97;87.96;101144.53;5091788;28;20043;-58
2023/08/09 10:38:41;;;;;;;1.95;0.52;;;;;;;14.88;88.44;101151.31;5091159;28;20031;-58
2023/08/09 10:41:10;;;;;;;0.63;0.55;;;;;;;14.81;88.79;101141.66;5092729;28;20111;-58
2023/08/09 10:43:37;;;;;;;1.05;0.52;;;;;;;14.70;89.42;101141.34;5092385;28;20104;-58
2023/08/09 10:46:19;;;;;;;1.35;0.50;;;;;;;14.70;89.75;101149.44;5092679;28;20088;-58
2023/08/09 10:48:50;;;;;;;0.60;0.60;;;;;;;14.62;90.59;101140.84;5092448;28;20024;-59
2023/08/09 10:51:19;;;;;;;0.50;0.50;;;;;;;14.53;90.99;101138.44;5092332;28;20094;-58
2023/08/09 10:54:03;;;;;;;0.40;0.35;;;;;;;14.54;91.00;101144.66;5091995;28;20385;-58
2023/08/09 10:56:42;;;;;;;0.73;0.50;;;;;;;14.63;90.19;101139.78;5092310;28;20477;-58
2023/08/09 10:59:14;;;;;;;2.97;0.68;;;;;;;14.64;90.09;101144.13;5092290;28;20036;-58
2023/08/09 11:01:42;;;;;;;0.50;0.30;;;;;;;14.71;89.62;101144.88;5092558;28;20376;-58
2023/08/09 11:04:12;;;;;;;1.25;0.40;;;;;;;14.70;89.95;101144.03;5092461;28;20086;-58
2023/08/09 11:06:43;;;;;;;1.02;0.30;;;;;;;14.70;89.96;101141.34;5092427;28;20036;-58
2023/08/09 11:09:17;;;;;;;0.82;0.28;;;;;;;14.75;89.51;101143.38;5092320;28;20103;-58
2023/08/09 11:11:46;;;;;;;0.20;0.20;;;;;;;14.78;89.58;101138.38;5092036;28;20031;-58
2023/08/09 11:14:17;;;;;;;0.93;0.50;;;;;;;14.81;89.89;101141.66;5092311;28;20028;-58
2023/08/09 11:16:47;;;;;;;0.77;0.50;;;;;;;14.84;89.80;101146.59;5060576;28;20038;-58
2023/08/09 11:19:18;;;;;;;1.23;0.40;;;;;;;14.75;88.57;101141.50;5090945;28;20020;-58
2023/08/09 11:21:47;;;;;;;0.40;0.30;;;;;;;14.60;89.09;101138.34;5090425;28;20028;-58
2023/08/09 11:24:15;;;;;;;0.75;0.30;;;;;;;14.44;89.56;101141.66;5090429;28;20032;-58
2023/08/09 11:26:54;;;;;;;0.65;0.25;;;;;;;14.45;89.74;101138.72;5091063;28;20016;-58
2023/08/09 11:29:22;;;;;;;0.38;0.20;;;;;;;14.42;89.54;101143.72;5075102;28;20640;-58
2023/08/09 11:31:51;;;;;;;0.80;0.40;;;;;;;14.31;89.91;101139.91;5088082;28;20043;-58